Time;durP1;ratioP1;P1;durP2;ratioP2;P2;SDS_P1;SDS_P2;PMS_P1;PMS_P2;Temp;Humidity;BMP_temperature;BMP_pressure;BME280_temperature;BME280_humidity;BME280_pressure;Samples;Min_cycle;Max_cycle;Signal;HPM_P1;HPM_P2
2023/01/17 00:01:10;;;;;;;0.30;0.30;;;4.50;99.90;;;;;;5055587;28;20225;-92
2023/01/17 00:09:51;;;;;;;1.27;0.83;;;4.50;99.90;;;;;;5052994;28;20225;-91
2023/01/17 00:12:00;;;;;;;0.40;0.40;;;4.40;99.90;;;;;;5056869;28;20218;-90
2023/01/17 00:14:26;;;;;;;0.20;0.20;;;4.40;99.90;;;;;;5061173;28;20714;-91
2023/01/17 00:16:53;;;;;;;0.30;0.30;;;4.50;99.90;;;;;;5041923;28;20195;-90
2023/01/17 01:34:34;;;;;;;0.23;0.23;;;4.50;99.90;;;;;;5057046;28;20237;-94
2023/01/17 01:37:00;;;;;;;0.20;0.20;;;4.60;99.90;;;;;;5054921;28;20244;-89
2023/01/17 01:39:26;;;;;;;0.30;0.30;;;4.60;99.90;;;;;;5049648;28;20267;-90
2023/01/17 01:41:52;;;;;;;1.13;0.30;;;4.60;99.90;;;;;;5040838;28;20230;-88
2023/01/17 01:44:44;;;;;;;0.40;0.40;;;4.70;99.90;;;;;;5055012;28;20769;-87
2023/01/17 01:47:34;;;;;;;0.70;0.50;;;4.70;99.90;;;;;;5056116;28;20209;-89
2023/01/17 01:50:03;;;;;;;0.30;0.30;;;4.80;99.90;;;;;;5060706;28;20448;-92
2023/01/17 01:52:32;;;;;;;0.20;0.20;;;4.90;99.90;;;;;;5054535;28;20225;-89
2023/01/17 01:55:02;;;;;;;0.57;0.50;;;5.00;99.90;;;;;;5056770;28;20235;-89
2023/01/17 01:57:33;;;;;;;0.30;0.30;;;5.10;99.90;;;;;;5050810;28;20243;-90
2023/01/17 02:00:04;;;;;;;0.30;0.30;;;5.00;99.90;;;;;;5056123;28;20682;-94
2023/01/17 02:02:30;;;;;;;0.40;0.40;;;5.10;99.90;;;;;;5054725;28;20237;-88
2023/01/17 02:04:58;;;;;;;0.30;0.30;;;5.10;99.90;;;;;;5053240;28;20224;-88
2023/01/17 02:07:31;;;;;;;8.40;0.87;;;4.90;99.90;;;;;;5037907;28;20225;-88
2023/01/17 02:09:57;;;;;;;4.90;0.73;;;4.70;99.90;;;;;;5055359;28;20331;-91
2023/01/17 02:12:24;;;;;;;0.40;0.40;;;4.60;99.90;;;;;;5052722;28;20218;-89
2023/01/17 02:14:50;;;;;;;0.30;0.30;;;4.60;99.90;;;;;;5056365;28;20213;-88
2023/01/17 02:17:25;;;;;;;0.30;0.30;;;4.60;99.90;;;;;;5054209;28;20551;-87
2023/01/17 02:20:00;;;;;;;0.30;0.30;;;4.60;99.90;;;;;;5057430;28;20185;-86
2023/01/17 02:22:43;;;;;;;0.30;0.30;;;4.50;99.90;;;;;;5058470;28;20225;-89
2023/01/17 02:25:30;;;;;;;0.30;0.30;;;4.50;99.90;;;;;;5057548;28;20213;-85
2023/01/17 02:28:17;;;;;;;1.90;0.60;;;4.50;99.90;;;;;;5055745;28;20286;-88
2023/01/17 02:30:49;;;;;;;0.30;0.30;;;4.50;99.90;;;;;;5055067;28;20202;-89
2023/01/17 02:33:35;;;;;;;0.70;0.70;;;4.50;99.90;;;;;;5055138;28;20234;-86
2023/01/17 02:36:28;;;;;;;0.60;0.50;;;4.50;99.90;;;;;;5056169;28;20204;-87
2023/01/17 02:39:14;;;;;;;7.27;0.63;;;4.60;99.90;;;;;;5053413;28;20233;-87
2023/01/17 02:41:44;;;;;;;0.20;0.20;;;4.70;99.90;;;;;;5057896;28;20311;-88
2023/01/17 02:44:15;;;;;;;0.50;0.50;;;4.80;99.90;;;;;;5052438;28;20668;-87
2023/01/17 02:46:50;;;;;;;0.20;0.20;;;4.90;99.90;;;;;;5056767;28;20243;-89
2023/01/17 02:49:18;;;;;;;0.23;0.23;;;4.80;99.90;;;;;;5051579;28;20216;-89
2023/01/17 02:52:04;;;;;;;0.20;0.20;;;4.80;99.90;;;;;;5055304;28;20269;-87
2023/01/17 02:55:05;;;;;;;1.60;0.50;;;4.90;99.90;;;;;;5054726;28;20227;-91
2023/01/17 02:57:49;;;;;;;0.20;0.20;;;5.00;99.90;;;;;;5053169;28;20241;-87
2023/01/17 03:00:15;;;;;;;11.80;0.57;;;5.00;99.90;;;;;;5059001;28;20217;-86
2023/01/17 03:02:50;;;;;;;0.23;0.23;;;4.90;99.90;;;;;;5058903;28;20244;-89
2023/01/17 03:05:22;;;;;;;0.30;0.30;;;5.00;99.90;;;;;;5059286;28;20217;-89
2023/01/17 03:07:50;;;;;;;0.43;0.43;;;4.90;99.90;;;;;;5060412;28;20220;-89
2023/01/17 03:10:18;;;;;;;0.53;0.53;;;4.80;99.90;;;;;;5057654;28;20229;-88
2023/01/17 03:12:44;;;;;;;0.40;0.40;;;4.90;99.90;;;;;;5054563;28;20260;-90
2023/01/17 03:15:12;;;;;;;0.30;0.30;;;4.90;99.90;;;;;;5044387;28;20245;-87
2023/01/17 03:17:45;;;;;;;0.53;0.53;;;4.90;99.90;;;;;;5052843;28;20210;-89
2023/01/17 03:20:11;;;;;;;2.27;1.03;;;4.90;99.90;;;;;;5060056;28;20607;-86
2023/01/17 03:22:37;;;;;;;0.13;0.13;;;4.70;99.90;;;;;;5083281;28;20673;-91
2023/01/17 03:25:04;;;;;;;2.30;1.07;;;4.50;99.90;;;;;;5056742;28;20222;-90
2023/01/17 03:27:30;;;;;;;0.27;0.27;;;4.40;99.90;;;;;;5036518;28;20315;-87
2023/01/17 03:29:56;;;;;;;0.67;0.67;;;4.30;99.90;;;;;;5055387;28;20726;-89
2023/01/17 03:32:21;;;;;;;0.30;0.30;;;4.30;99.90;;;;;;5055936;28;20194;-84
2023/01/17 03:34:47;;;;;;;0.30;0.30;;;4.20;99.90;;;;;;5057197;28;20217;-85
2023/01/17 03:37:13;;;;;;;0.73;0.73;;;4.20;99.90;;;;;;5058542;28;20252;-91
2023/01/17 03:39:39;;;;;;;0.20;0.20;;;4.10;99.90;;;;;;5057884;28;20221;-91
2023/01/17 03:42:04;;;;;;;0.30;0.30;;;4.10;99.90;;;;;;5057948;28;20229;-85
2023/01/17 03:44:30;;;;;;;0.50;0.50;;;4.10;99.90;;;;;;5058522;28;20266;-91
2023/01/17 03:46:56;;;;;;;0.27;0.27;;;4.30;99.90;;;;;;5025105;28;20280;-88
2023/01/17 03:49:22;;;;;;;0.20;0.20;;;4.20;99.90;;;;;;5041030;28;20211;-87
2023/01/17 03:51:47;;;;;;;1.27;1.17;;;4.10;99.90;;;;;;5040587;28;20283;-88
2023/01/17 03:54:13;;;;;;;0.30;0.30;;;4.10;99.90;;;;;;5054324;28;20440;-87
2023/01/17 03:56:39;;;;;;;0.30;0.30;;;4.10;99.90;;;;;;5055271;28;20676;-87
2023/01/17 03:59:04;;;;;;;9.43;0.80;;;4.20;99.90;;;;;;5038725;28;20253;-87
2023/01/17 04:01:30;;;;;;;0.27;0.27;;;4.30;99.90;;;;;;5056255;28;20642;-85
2023/01/17 04:03:56;;;;;;;1.30;0.70;;;4.30;99.90;;;;;;5039751;28;20291;-85
2023/01/17 04:06:21;;;;;;;0.30;0.30;;;4.30;99.90;;;;;;5057782;28;20221;-89
2023/01/17 04:08:47;;;;;;;2.57;0.67;;;4.30;99.90;;;;;;5058464;28;20231;-87
2023/01/17 04:11:13;;;;;;;0.30;0.30;;;4.30;99.90;;;;;;5059601;28;20598;-86
2023/01/17 04:13:38;;;;;;;0.97;0.63;;;4.30;99.90;;;;;;5057031;28;20194;-90
2023/01/17 04:16:04;;;;;;;0.30;0.30;;;4.20;99.90;;;;;;5038518;28;20260;-92
2023/01/17 04:18:30;;;;;;;0.30;0.30;;;4.20;99.90;;;;;;5057957;28;20228;-88
2023/01/17 04:20:56;;;;;;;1.33;1.23;;;4.10;99.90;;;;;;5039242;28;20235;-85
2023/01/17 04:23:22;;;;;;;12.07;2.63;;;4.10;99.90;;;;;;5040597;28;20202;-87
2023/01/17 04:25:47;;;;;;;0.50;0.50;;;4.10;99.90;;;;;;5060025;28;20181;-86
2023/01/17 04:28:13;;;;;;;0.20;0.20;;;4.20;99.90;;;;;;5055388;28;20687;-86
2023/01/17 04:30:39;;;;;;;0.30;0.30;;;4.20;99.90;;;;;;5055286;28;20248;-86
2023/01/17 04:33:05;;;;;;;1.13;1.03;;;4.20;99.90;;;;;;5055238;28;20243;-87
2023/01/17 04:35:32;;;;;;;0.73;0.73;;;4.20;99.90;;;;;;5054798;28;20241;-90
2023/01/17 04:37:58;;;;;;;0.30;0.30;;;4.20;99.90;;;;;;5058142;28;20190;-85
2023/01/17 04:40:25;;;;;;;0.40;0.40;;;4.10;99.90;;;;;;5050872;28;20228;-85
2023/01/17 04:42:51;;;;;;;0.30;0.30;;;4.00;99.90;;;;;;5054230;28;20337;-85
2023/01/17 04:45:17;;;;;;;0.20;0.20;;;4.00;99.90;;;;;;5058893;28;20221;-83
2023/01/17 04:47:42;;;;;;;0.33;0.33;;;4.00;99.90;;;;;;5057404;28;20573;-92
2023/01/17 04:50:09;;;;;;;1.30;1.03;;;3.90;99.90;;;;;;5051181;28;20186;-90
2023/01/17 04:52:35;;;;;;;0.30;0.30;;;3.90;99.90;;;;;;5036178;28;20251;-87
2023/01/17 04:55:01;;;;;;;0.30;0.30;;;3.90;99.90;;;;;;5053100;28;20214;-91
2023/01/17 04:57:26;;;;;;;0.40;0.40;;;3.90;99.90;;;;;;5039455;28;20212;-86
2023/01/17 04:59:52;;;;;;;0.30;0.30;;;3.90;99.90;;;;;;5052760;28;20240;-88
2023/01/17 05:02:18;;;;;;;2.13;0.70;;;3.90;99.90;;;;;;5038528;28;20354;-85
2023/01/17 05:04:44;;;;;;;0.37;0.37;;;3.80;99.90;;;;;;5055817;28;20243;-87
2023/01/17 05:07:10;;;;;;;2.17;1.23;;;3.70;99.90;;;;;;5056675;28;20221;-86
2023/01/17 05:09:35;;;;;;;1.57;1.47;;;3.70;99.90;;;;;;5040727;28;20221;-90
2023/01/17 05:12:01;;;;;;;10.00;0.97;;;3.60;99.90;;;;;;5021468;28;20217;-87
2023/01/17 05:14:27;;;;;;;0.30;0.30;;;3.60;99.90;;;;;;5054867;28;20674;-86
2023/01/17 05:16:57;;;;;;;0.20;0.20;;;3.50;99.90;;;;;;5040769;28;20587;-86
2023/01/17 05:19:24;;;;;;;0.20;0.20;;;3.50;99.90;;;;;;5058970;28;20909;-84
2023/01/17 05:21:49;;;;;;;0.30;0.30;;;3.40;99.90;;;;;;5050204;28;20220;-90
2023/01/17 05:24:15;;;;;;;0.30;0.30;;;3.40;99.90;;;;;;5054012;28;20218;-86
2023/01/17 05:26:42;;;;;;;0.30;0.30;;;3.40;99.90;;;;;;5038167;28;20224;-85
2023/01/17 05:29:08;;;;;;;3.80;0.50;;;3.30;99.90;;;;;;5057422;28;20186;-90
2023/01/17 05:31:35;;;;;;;0.20;0.20;;;3.30;99.90;;;;;;5038436;28;20194;-86
2023/01/17 05:34:01;;;;;;;0.50;0.50;;;3.30;99.90;;;;;;5054756;28;20709;-85
2023/01/17 05:36:26;;;;;;;0.30;0.30;;;3.30;99.90;;;;;;5036593;28;20260;-90
2023/01/17 05:38:52;;;;;;;0.73;0.73;;;3.30;99.90;;;;;;5041461;28;20293;-92
2023/01/17 05:41:18;;;;;;;0.30;0.30;;;3.30;99.90;;;;;;5038064;28;20192;-91
2023/01/17 05:43:44;;;;;;;0.90;0.90;;;3.40;99.90;;;;;;5021082;28;20760;-87
2023/01/17 05:46:09;;;;;;;0.27;0.27;;;3.40;99.90;;;;;;5042645;28;20237;-86
2023/01/17 05:48:38;;;;;;;0.30;0.30;;;3.50;99.90;;;;;;5054620;28;20222;-86
2023/01/17 05:51:04;;;;;;;0.33;0.33;;;3.50;99.90;;;;;;5052698;28;20239;-91
2023/01/17 05:53:30;;;;;;;0.40;0.40;;;3.50;99.90;;;;;;5041172;28;20305;-86
2023/01/17 05:55:55;;;;;;;0.30;0.30;;;3.50;99.90;;;;;;5021501;28;20181;-87
2023/01/17 05:58:21;;;;;;;1.90;0.90;;;3.40;99.90;;;;;;5019074;28;20214;-89
2023/01/17 06:00:47;;;;;;;0.40;0.40;;;3.30;99.90;;;;;;5053188;28;20222;-88
2023/01/17 06:03:14;;;;;;;0.20;0.20;;;3.20;99.90;;;;;;5036058;28;20237;-90
2023/01/17 06:05:41;;;;;;;0.30;0.30;;;3.10;99.90;;;;;;5054028;28;20671;-83
2023/01/17 06:08:06;;;;;;;0.37;0.37;;;3.00;99.90;;;;;;5052520;28;20235;-88
2023/01/17 06:10:33;;;;;;;0.40;0.40;;;2.90;99.90;;;;;;5054275;28;20186;-87
2023/01/17 06:13:05;;;;;;;0.27;0.27;;;2.90;99.90;;;;;;5053816;28;20275;-86
2023/01/17 06:15:31;;;;;;;0.30;0.30;;;2.80;99.90;;;;;;5057077;28;20221;-87
2023/01/17 06:17:57;;;;;;;0.50;0.50;;;2.80;99.90;;;;;;5035910;28;20251;-87
2023/01/17 06:20:22;;;;;;;0.90;0.90;;;2.90;99.90;;;;;;5052429;28;20197;-86
2023/01/17 06:22:48;;;;;;;1.60;0.70;;;2.90;99.90;;;;;;5054933;28;20214;-91
2023/01/17 06:25:14;;;;;;;0.20;0.20;;;2.90;99.90;;;;;;5051572;28;20274;-87
2023/01/17 06:27:40;;;;;;;0.60;0.60;;;2.90;99.90;;;;;;5053114;28;20230;-89
2023/01/17 06:30:06;;;;;;;0.60;0.60;;;2.90;99.90;;;;;;5055970;28;20223;-90
2023/01/17 06:32:32;;;;;;;0.40;0.40;;;2.90;99.90;;;;;;5053461;28;20221;-86
2023/01/17 06:34:57;;;;;;;0.40;0.40;;;2.90;99.90;;;;;;5059278;28;20546;-88
2023/01/17 06:37:23;;;;;;;0.50;0.50;;;3.00;99.90;;;;;;5056651;28;20218;-86
2023/01/17 06:39:49;;;;;;;0.43;0.43;;;3.00;99.90;;;;;;5057255;28;20618;-91
2023/01/17 06:42:15;;;;;;;0.30;0.30;;;3.00;99.90;;;;;;5058039;28;20340;-86
2023/01/17 06:44:40;;;;;;;0.30;0.30;;;3.10;99.90;;;;;;5057795;28;20240;-91
2023/01/17 06:47:06;;;;;;;0.30;0.30;;;3.10;99.90;;;;;;5054700;28;20204;-85
2023/01/17 06:49:32;;;;;;;0.47;0.47;;;3.10;99.90;;;;;;5056357;28;20225;-88
2023/01/17 06:51:57;;;;;;;13.57;1.13;;;3.10;99.90;;;;;;5039134;28;20312;-88
2023/01/17 06:54:23;;;;;;;0.60;0.60;;;3.20;99.90;;;;;;5054120;28;20271;-90
2023/01/17 06:56:49;;;;;;;0.40;0.40;;;3.20;99.90;;;;;;5060914;28;20224;-89
2023/01/17 06:59:15;;;;;;;0.40;0.40;;;3.10;99.90;;;;;;5040109;28;20204;-87
2023/01/17 07:01:40;;;;;;;0.30;0.30;;;3.10;99.90;;;;;;5026093;28;20554;-86
2023/01/17 07:04:06;;;;;;;0.30;0.30;;;3.10;99.90;;;;;;5052327;28;20222;-86
2023/01/17 07:06:35;;;;;;;0.60;0.60;;;3.10;99.90;;;;;;5056801;28;20217;-85
2023/01/17 07:09:02;;;;;;;0.30;0.30;;;3.10;99.90;;;;;;5056001;28;20236;-87
2023/01/17 07:11:28;;;;;;;0.30;0.30;;;3.10;99.90;;;;;;5040023;28;20213;-86
2023/01/17 07:13:54;;;;;;;0.30;0.30;;;3.10;99.90;;;;;;5056677;28;20742;-86
2023/01/17 07:16:20;;;;;;;0.30;0.30;;;3.00;99.90;;;;;;5053886;28;20249;-92
2023/01/17 07:18:45;;;;;;;0.30;0.30;;;3.00;99.90;;;;;;5042531;28;20212;-88
2023/01/17 07:21:14;;;;;;;0.30;0.30;;;3.10;99.90;;;;;;5059757;28;20229;-87
2023/01/17 07:23:40;;;;;;;0.40;0.40;;;3.10;99.90;;;;;;5065011;28;20236;-88
2023/01/17 07:26:06;;;;;;;0.37;0.37;;;3.20;99.90;;;;;;5058707;28;20240;-84
2023/01/17 07:28:32;;;;;;;1.37;0.50;;;3.30;99.90;;;;;;5041918;28;20588;-91
2023/01/17 07:31:02;;;;;;;3.50;1.43;;;3.30;99.90;;;;;;5058916;28;20221;-89
2023/01/17 07:33:28;;;;;;;0.30;0.30;;;3.30;99.90;;;;;;5061280;28;20221;-95
2023/01/17 07:35:54;;;;;;;0.30;0.30;;;3.30;99.90;;;;;;5056484;28;20289;-89
2023/01/17 07:38:20;;;;;;;0.30;0.30;;;3.30;99.90;;;;;;5059376;28;20208;-89
2023/01/17 07:40:45;;;;;;;0.40;0.40;;;3.30;99.90;;;;;;5060035;28;20193;-90
2023/01/17 07:43:15;;;;;;;0.23;0.23;;;3.20;99.90;;;;;;5056676;28;20264;-93
2023/01/17 07:45:49;;;;;;;0.30;0.30;;;3.20;99.90;;;;;;5055786;28;20229;-89
2023/01/17 07:48:16;;;;;;;0.77;0.60;;;3.30;99.90;;;;;;5057498;28;20282;-85
2023/01/17 07:50:42;;;;;;;0.30;0.30;;;3.30;99.90;;;;;;5056286;28;20313;-88
2023/01/17 07:53:09;;;;;;;0.50;0.30;;;3.30;99.90;;;;;;5079973;28;20228;-88
2023/01/17 07:55:35;;;;;;;0.20;0.20;;;3.30;99.90;;;;;;5056503;28;20182;-90
2023/01/17 07:58:00;;;;;;;0.40;0.40;;;3.30;99.90;;;;;;5042778;28;20217;-88
2023/01/17 08:00:26;;;;;;;0.30;0.30;;;3.50;99.90;;;;;;5056509;28;20287;-89
2023/01/17 08:02:56;;;;;;;11.63;1.13;;;3.70;99.90;;;;;;5039925;28;20225;-88
2023/01/17 08:05:22;;;;;;;1.03;1.03;;;4.00;99.90;;;;;;5055804;28;20261;-89
2023/01/17 08:07:48;;;;;;;1.20;0.50;;;4.40;99.90;;;;;;5055541;28;20256;-90
2023/01/17 08:10:17;;;;;;;0.30;0.30;;;4.80;99.90;;;;;;5056981;28;20229;-89
2023/01/17 08:12:47;;;;;;;0.30;0.30;;;5.10;99.90;;;;;;5058179;28;20213;-87
2023/01/17 08:15:15;;;;;;;0.30;0.30;;;5.40;99.90;;;;;;5072580;28;20244;-88
2023/01/17 08:17:48;;;;;;;0.70;0.70;;;5.50;99.90;;;;;;5044845;28;20563;-92
2023/01/17 08:20:15;;;;;;;0.30;0.30;;;5.30;99.90;;;;;;5055613;28;20174;-88
2023/01/17 08:22:41;;;;;;;0.20;0.20;;;5.00;99.90;;;;;;5046674;28;20226;-89
2023/01/17 08:25:07;;;;;;;0.50;0.50;;;4.70;99.90;;;;;;5052785;28;20214;-87
2023/01/17 08:27:33;;;;;;;0.30;0.30;;;4.50;99.90;;;;;;5058263;28;20664;-89
2023/01/17 08:29:59;;;;;;;1.07;1.07;;;4.40;99.90;;;;;;5041310;28;20704;-86
2023/01/17 08:32:25;;;;;;;0.30;0.30;;;4.40;99.90;;;;;;5059110;28;20240;-86
2023/01/17 08:34:50;;;;;;;0.30;0.30;;;4.40;99.90;;;;;;5061091;28;20276;-88
2023/01/17 08:37:16;;;;;;;0.30;0.30;;;4.60;99.90;;;;;;5057620;28;20218;-88
2023/01/17 08:39:42;;;;;;;0.30;0.30;;;4.50;99.90;;;;;;5058854;28;20728;-88
2023/01/17 08:42:07;;;;;;;0.20;0.20;;;4.20;99.90;;;;;;5042452;28;20340;-87
2023/01/17 08:44:33;;;;;;;0.30;0.30;;;4.00;99.90;;;;;;5041239;28;20285;-87
2023/01/17 08:47:00;;;;;;;0.30;0.30;;;3.80;99.90;;;;;;5054823;28;20205;-91
2023/01/17 08:49:26;;;;;;;0.30;0.30;;;3.60;99.90;;;;;;5057108;28;20759;-87
2023/01/17 08:51:51;;;;;;;0.20;0.20;;;3.40;99.90;;;;;;5052713;28;20210;-89
2023/01/17 08:54:18;;;;;;;0.30;0.30;;;3.30;99.90;;;;;;5055467;28;20217;-87
2023/01/17 08:56:45;;;;;;;0.30;0.30;;;3.00;99.90;;;;;;5033602;28;20209;-86
2023/01/17 08:59:12;;;;;;;0.30;0.30;;;2.80;99.90;;;;;;5052036;28;20201;-87
2023/01/17 09:01:40;;;;;;;0.30;0.30;;;2.90;99.90;;;;;;5056301;28;21017;-87
2023/01/17 09:04:07;;;;;;;0.30;0.30;;;3.00;99.90;;;;;;5051636;28;20241;-87
2023/01/17 09:06:44;;;;;;;0.43;0.43;;;3.10;99.90;;;;;;5054501;28;20255;-91
2023/01/17 09:09:10;;;;;;;0.30;0.30;;;3.20;99.90;;;;;;5057453;28;20228;-87
2023/01/17 09:11:36;;;;;;;0.40;0.40;;;3.30;99.90;;;;;;5061964;28;20209;-87
2023/01/17 09:14:02;;;;;;;0.30;0.30;;;3.40;99.90;;;;;;5041559;28;20516;-89
2023/01/17 09:16:28;;;;;;;1.27;0.60;;;3.50;99.90;;;;;;5058482;28;20673;-86
2023/01/17 09:18:55;;;;;;;0.23;0.23;;;3.60;99.90;;;;;;5065934;28;20227;-87
2023/01/17 09:21:27;;;;;;;0.40;0.40;;;3.60;99.90;;;;;;5061467;28;20209;-89
2023/01/17 09:23:54;;;;;;;1.07;1.07;;;3.60;99.90;;;;;;5058443;28;20222;-85
2023/01/17 09:26:25;;;;;;;0.40;0.40;;;3.60;99.90;;;;;;5057931;28;20576;-88
2023/01/17 09:28:51;;;;;;;0.33;0.33;;;3.60;99.90;;;;;;5054742;28;20607;-87
2023/01/17 09:31:21;;;;;;;0.30;0.30;;;3.60;99.90;;;;;;5059486;28;20652;-92
2023/01/17 09:33:52;;;;;;;0.93;0.93;;;3.50;99.90;;;;;;5053939;28;20732;-89
2023/01/17 09:36:17;;;;;;;0.30;0.30;;;3.30;99.90;;;;;;5050806;28;20210;-88
2023/01/17 09:38:43;;;;;;;0.20;0.20;;;3.10;99.90;;;;;;5021838;28;20244;-88
2023/01/17 09:41:20;;;;;;;0.30;0.30;;;3.00;99.90;;;;;;5052204;28;20182;-89
2023/01/17 09:43:54;;;;;;;0.30;0.30;;;2.90;99.90;;;;;;5054670;28;20208;-87
2023/01/17 09:46:32;;;;;;;1.57;1.57;;;2.90;99.90;;;;;;5052780;28;20281;-92
2023/01/17 09:49:07;;;;;;;0.30;0.30;;;2.80;99.90;;;;;;5049575;28;20236;-88
2023/01/17 09:51:34;;;;;;;0.33;0.33;;;2.80;99.90;;;;;;5054522;28;20206;-90
2023/01/17 09:54:01;;;;;;;0.30;0.30;;;3.00;99.90;;;;;;5055754;28;20272;-91
2023/01/17 09:56:34;;;;;;;0.27;0.27;;;3.10;99.90;;;;;;5057999;28;20222;-89
2023/01/17 09:59:44;;;;;;;0.90;0.60;;;3.30;99.90;;;;;;5053712;28;20224;-90
2023/01/17 10:02:19;;;;;;;0.50;0.50;;;3.50;99.90;;;;;;5075194;28;20319;-91
2023/01/17 10:05:20;;;;;;;0.20;0.20;;;3.70;99.90;;;;;;5051286;28;20182;-90
2023/01/17 10:08:04;;;;;;;0.20;0.20;;;3.90;99.90;;;;;;5057938;28;20308;-89
2023/01/17 10:10:38;;;;;;;0.40;0.40;;;4.10;99.90;;;;;;5050230;28;20227;-94
2023/01/17 10:13:23;;;;;;;0.57;0.57;;;4.10;99.90;;;;;;5053792;28;20217;-90
2023/01/17 10:16:03;;;;;;;0.40;0.40;;;4.10;99.90;;;;;;5054941;28;20220;-94
2023/01/17 10:18:57;;;;;;;0.40;0.40;;;4.20;99.90;;;;;;5051087;28;20221;-91
2023/01/17 10:21:57;;;;;;;0.60;0.60;;;4.20;99.90;;;;;;5059161;28;20286;-90
2023/01/17 10:24:41;;;;;;;0.60;0.60;;;4.10;99.90;;;;;;5056345;28;20647;-92
2023/01/17 10:27:36;;;;;;;0.70;0.70;;;4.10;99.90;;;;;;5070679;28;20301;-96
2023/01/17 10:30:14;;;;;;;0.30;0.30;;;4.10;99.90;;;;;;5062927;28;20235;-88
2023/01/17 10:32:46;;;;;;;0.50;0.50;;;4.20;99.90;;;;;;5061541;28;20304;-87
2023/01/17 10:35:29;;;;;;;0.30;0.30;;;4.30;99.90;;;;;;5063062;28;20177;-89
2023/01/17 10:37:57;;;;;;;0.23;0.23;;;4.40;99.90;;;;;;5067781;28;20189;-87
2023/01/17 10:44:54;;;;;;;0.80;0.80;;;4.40;99.90;;;;;;5063814;28;20275;-88
2023/01/17 10:47:23;;;;;;;0.20;0.20;;;4.50;99.90;;;;;;5065911;28;20301;-87
2023/01/17 10:49:52;;;;;;;0.70;0.70;;;4.60;99.90;;;;;;5053103;28;20158;-87
2023/01/17 10:55:55;;;;;;;0.40;0.40;;;4.70;99.90;;;;;;5053871;28;20213;-87
2023/01/17 10:58:41;;;;;;;0.30;0.30;;;4.70;99.90;;;;;;4967935;28;20644;-87
2023/01/17 11:01:18;;;;;;;0.30;0.30;;;4.80;99.90;;;;;;5049715;28;20228;-90
2023/01/17 11:03:49;;;;;;;1.07;0.87;;;4.90;99.90;;;;;;5080878;28;20241;-86
2023/01/17 11:06:19;;;;;;;0.20;0.20;;;4.90;99.90;;;;;;5059679;28;20209;-87
2023/01/17 11:08:53;;;;;;;0.50;0.50;;;4.80;99.90;;;;;;5065991;28;20213;-86
2023/01/17 11:11:22;;;;;;;0.73;0.57;;;4.90;99.90;;;;;;5061996;28;20213;-87
2023/01/17 11:13:49;;;;;;;0.20;0.20;;;4.90;99.90;;;;;;5064826;28;20296;-87
2023/01/17 11:16:21;;;;;;;0.30;0.30;;;4.90;99.90;;;;;;5064992;28;20182;-86
2023/01/17 11:19:03;;;;;;;0.77;0.77;;;4.80;99.90;;;;;;5070373;28;20231;-84
2023/01/17 11:21:29;;;;;;;0.20;0.20;;;4.80;99.90;;;;;;5073231;28;20221;-88
2023/01/17 11:23:56;;;;;;;0.40;0.40;;;4.80;99.90;;;;;;5054084;28;20600;-88
2023/01/17 11:26:29;;;;;;;0.80;0.80;;;4.90;99.90;;;;;;5064804;28;20213;-87
2023/01/17 11:29:33;;;;;;;0.37;0.37;;;4.90;99.90;;;;;;5060795;28;20258;-87
2023/01/17 11:32:21;;;;;;;0.20;0.20;;;5.00;99.90;;;;;;5067967;28;20246;-88
2023/01/17 11:35:42;;;;;;;0.30;0.30;;;5.30;99.90;;;;;;5042583;28;20230;-88
2023/01/17 11:38:19;;;;;;;0.30;0.30;;;5.50;99.90;;;;;;5044583;28;20226;-86
2023/01/17 11:40:47;;;;;;;0.20;0.20;;;5.50;99.90;;;;;;5065772;28;20274;-87
2023/01/17 11:43:24;;;;;;;0.30;0.30;;;5.60;99.90;;;;;;5062675;28;20285;-87
2023/01/17 11:46:01;;;;;;;0.20;0.20;;;5.50;99.90;;;;;;5064286;28;20243;-87
2023/01/17 11:48:38;;;;;;;0.30;0.30;;;5.70;99.90;;;;;;5063806;28;20565;-86
2023/01/17 11:51:17;;;;;;;0.60;0.60;;;5.70;99.90;;;;;;5066967;28;20251;-87
2023/01/17 11:53:47;;;;;;;0.30;0.30;;;5.70;99.90;;;;;;5066555;28;20295;-87
2023/01/17 11:56:33;;;;;;;0.50;0.50;;;5.60;99.90;;;;;;5065815;28;20214;-86
2023/01/17 11:59:20;;;;;;;0.20;0.20;;;5.50;99.90;;;;;;5062319;28;20528;-88
2023/01/17 12:02:04;;;;;;;0.40;0.40;;;5.50;99.90;;;;;;5062963;28;20243;-90
2023/01/17 12:04:33;;;;;;;0.20;0.20;;;5.50;99.90;;;;;;5060103;28;20655;-88
2023/01/17 12:07:30;;;;;;;0.20;0.20;;;5.50;99.90;;;;;;5061043;28;20192;-86
2023/01/17 12:10:15;;;;;;;0.50;0.50;;;5.40;99.90;;;;;;5063692;28;20601;-88
2023/01/17 12:16:26;;;;;;;0.43;0.43;;;5.40;99.90;;;;;;5065102;28;20284;-86
2023/01/17 12:19:31;;;;;;;0.40;0.40;;;5.50;99.90;;;;;;5062475;28;20201;-86
2023/01/17 12:22:33;;;;;;;0.40;0.40;;;5.50;99.90;;;;;;5036523;28;20220;-87
2023/01/17 12:25:18;;;;;;;0.40;0.40;;;5.50;99.90;;;;;;5060975;28;20762;-87
2023/01/17 12:28:33;;;;;;;0.20;0.20;;;5.50;99.90;;;;;;5061282;28;20726;-87
2023/01/17 12:31:05;;;;;;;0.30;0.30;;;5.50;99.90;;;;;;4973919;28;20222;-89
2023/01/17 12:33:52;;;;;;;0.30;0.30;;;5.50;99.90;;;;;;5056510;28;20225;-87
2023/01/17 12:36:21;;;;;;;0.80;0.80;;;5.40;99.90;;;;;;5061433;28;20213;-88
2023/01/17 12:38:47;;;;;;;0.20;0.20;;;5.50;99.90;;;;;;5061309;28;20268;-90
2023/01/17 12:41:30;;;;;;;0.57;0.57;;;5.50;99.90;;;;;;5058161;28;20308;-93
2023/01/17 12:43:59;;;;;;;0.30;0.30;;;5.60;99.90;;;;;;5069600;28;20541;-87
2023/01/17 12:46:43;;;;;;;0.60;0.60;;;5.60;99.90;;;;;;5060845;28;20194;-85
2023/01/17 12:49:17;;;;;;;0.40;0.40;;;5.60;99.90;;;;;;5056833;28;20339;-82
2023/01/17 12:51:45;;;;;;;0.30;0.30;;;5.60;99.90;;;;;;5060507;28;20213;-84
2023/01/17 12:54:30;;;;;;;1.70;0.40;;;5.60;99.90;;;;;;5058616;28;20217;-89
2023/01/17 12:57:20;;;;;;;0.50;0.50;;;5.70;99.90;;;;;;5054506;28;20227;-87
2023/01/17 13:00:12;;;;;;;0.97;0.40;;;5.60;99.90;;;;;;5052007;28;20214;-87
2023/01/17 13:02:46;;;;;;;0.30;0.30;;;5.80;99.90;;;;;;5030928;28;20697;-90
2023/01/17 13:05:22;;;;;;;0.30;0.30;;;5.80;99.90;;;;;;5052706;28;20280;-89
2023/01/17 13:08:02;;;;;;;0.30;0.30;;;6.00;99.90;;;;;;5051839;28;20208;-88
2023/01/17 13:10:47;;;;;;;0.37;0.37;;;6.20;99.90;;;;;;5054687;28;20189;-90
2023/01/17 13:13:21;;;;;;;0.43;0.33;;;6.10;99.90;;;;;;5052599;28;20208;-87
2023/01/17 13:15:53;;;;;;;0.20;0.20;;;5.80;99.90;;;;;;5062246;28;20209;-87
2023/01/17 13:18:24;;;;;;;0.40;0.40;;;5.60;99.90;;;;;;5052411;28;20217;-92
2023/01/17 13:21:08;;;;;;;0.60;0.60;;;5.60;99.90;;;;;;5051242;28;20241;-86
2023/01/17 13:24:09;;;;;;;0.77;0.77;;;5.30;99.90;;;;;;5052517;28;20233;-88
2023/01/17 13:26:58;;;;;;;0.30;0.30;;;5.20;99.90;;;;;;5053797;28;20225;-89
2023/01/17 13:29:43;;;;;;;0.30;0.30;;;5.20;99.90;;;;;;5052672;28;20225;-87
2023/01/17 13:32:41;;;;;;;0.20;0.20;;;5.30;99.90;;;;;;5054503;28;20229;-91
2023/01/17 13:35:39;;;;;;;0.40;0.40;;;5.40;99.90;;;;;;5048868;28;20217;-89
2023/01/17 13:38:26;;;;;;;0.30;0.30;;;5.50;99.90;;;;;;5054342;28;20260;-87
2023/01/17 13:41:15;;;;;;;0.30;0.30;;;5.60;99.90;;;;;;5052571;28;20213;-89
2023/01/17 13:44:20;;;;;;;2.30;1.00;;;5.70;99.90;;;;;;5052951;28;20225;-87
2023/01/17 13:46:58;;;;;;;0.30;0.30;;;5.80;99.90;;;;;;5050180;28;20808;-90
2023/01/17 13:49:39;;;;;;;0.20;0.20;;;5.80;99.90;;;;;;5053056;28;20229;-94
2023/01/17 13:52:18;;;;;;;0.30;0.30;;;5.80;99.90;;;;;;5053941;28;20615;-87
2023/01/17 13:54:53;;;;;;;0.23;0.23;;;5.90;99.90;;;;;;5054490;28;20510;-87
2023/01/17 13:57:23;;;;;;;0.83;0.83;;;5.90;99.90;;;;;;5056399;28;20243;-83
2023/01/17 13:59:49;;;;;;;0.20;0.20;;;5.90;99.90;;;;;;5053040;28;20295;-87
2023/01/17 14:02:34;;;;;;;0.30;0.30;;;5.80;99.90;;;;;;5036007;28;20671;-92
2023/01/17 14:05:32;;;;;;;0.30;0.30;;;5.70;99.90;;;;;;5053260;28;20225;-89
2023/01/17 14:08:11;;;;;;;0.30;0.30;;;5.60;99.90;;;;;;5025060;28;20236;-89
2023/01/17 14:10:51;;;;;;;0.30;0.30;;;5.70;99.90;;;;;;5049460;28;20317;-87
2023/01/17 14:13:48;;;;;;;0.63;0.63;;;5.60;99.90;;;;;;5054299;28;20198;-89
2023/01/17 14:16:20;;;;;;;0.30;0.30;;;5.60;99.90;;;;;;5057946;28;20197;-90
2023/01/17 14:18:46;;;;;;;0.20;0.20;;;5.60;99.90;;;;;;5055746;28;20192;-90
2023/01/17 14:21:22;;;;;;;0.30;0.30;;;5.60;99.90;;;;;;5042444;28;20225;-92
2023/01/17 14:24:11;;;;;;;1.80;1.33;;;5.80;99.90;;;;;;5053425;28;20344;-86
2023/01/17 14:26:50;;;;;;;0.50;0.50;;;5.80;99.90;;;;;;5050887;28;20264;-88
2023/01/17 14:29:41;;;;;;;0.30;0.30;;;5.90;99.90;;;;;;5053456;28;20224;-89
2023/01/17 14:32:14;;;;;;;0.30;0.30;;;5.90;99.90;;;;;;5050312;28;20217;-91
2023/01/17 14:34:41;;;;;;;0.30;0.30;;;5.80;99.90;;;;;;5051663;28;20227;-90
2023/01/17 14:37:29;;;;;;;0.30;0.30;;;5.50;99.90;;;;;;5053392;28;20697;-86
2023/01/17 14:39:54;;;;;;;0.50;0.50;;;5.30;99.90;;;;;;5052816;28;20225;-90
2023/01/17 14:42:23;;;;;;;0.30;0.30;;;5.20;99.90;;;;;;5053932;28;20287;-87
2023/01/17 14:45:07;;;;;;;1.47;1.47;;;5.10;99.90;;;;;;5054244;28;20240;-88
2023/01/17 14:47:38;;;;;;;1.20;1.20;;;5.10;99.90;;;;;;5036289;28;20221;-87
2023/01/17 14:50:23;;;;;;;5.40;0.50;;;5.10;99.90;;;;;;5052504;28;20312;-88
2023/01/17 14:53:30;;;;;;;0.37;0.37;;;5.10;99.90;;;;;;5047228;28;20260;-89
2023/01/17 14:56:18;;;;;;;0.93;0.93;;;5.10;99.90;;;;;;4988118;28;20340;-88
2023/01/17 14:58:47;;;;;;;2.13;0.60;;;5.00;99.90;;;;;;5052471;28;20296;-87